Time;durP1;ratioP1;P1;durP2;ratioP2;P2;SDS_P1;SDS_P2;PMS_P1;PMS_P2;Temp;Humidity;BMP_temperature;BMP_pressure;BME280_temperature;BME280_humidity;BME280_pressure;Samples;Min_cycle;Max_cycle;Signal;HPM_P1;HPM_P2
2021/01/27 00:02:29;;;;;;;14.50;7.88;;;3.00;99.90;;;;;;4957088;28;20043;-71
2021/01/27 00:05:02;;;;;;;13.45;7.15;;;2.90;99.90;;;;;;4974210;28;20053;-71
2021/01/27 00:07:35;;;;;;;15.18;7.85;;;2.90;99.90;;;;;;4955184;29;20059;-71
2021/01/27 00:10:10;;;;;;;15.90;7.75;;;2.90;99.90;;;;;;4971609;28;20053;-71
2021/01/27 00:13:08;;;;;;;15.55;8.00;;;2.90;99.90;;;;;;4956618;28;20043;-71
2021/01/27 00:15:41;;;;;;;13.45;7.85;;;2.90;99.90;;;;;;4973939;28;20046;-70
2021/01/27 00:22:27;;;;;;;14.75;7.72;;;2.90;99.90;;;;;;4973670;28;20092;-71
2021/01/27 00:25:00;;;;;;;19.17;9.43;;;2.90;99.90;;;;;;4975818;28;20478;-71
2021/01/27 00:27:26;;;;;;;;;;;2.90;99.90;;;;;;4977801;28;20398;-70
2021/01/27 00:29:55;;;;;;;13.90;7.40;;;2.90;99.90;;;;;;4977587;28;19981;-70
2021/01/27 00:32:30;;;;;;;15.73;8.10;;;3.00;99.90;;;;;;4973277;28;20051;-71
2021/01/27 00:34:59;;;;;;;15.63;8.27;;;2.90;99.90;;;;;;4977423;28;20085;-71
2021/01/27 00:37:26;;;;;;;12.55;7.75;;;2.90;99.90;;;;;;4977528;28;20055;-71
2021/01/27 00:40:00;;;;;;;15.88;9.02;;;3.00;99.90;;;;;;4977209;28;20126;-71
2021/01/27 00:42:30;;;;;;;16.08;8.60;;;3.00;99.90;;;;;;4976872;28;20105;-70
2021/01/27 00:44:56;;;;;;;19.23;8.70;;;2.90;99.90;;;;;;4977170;28;20372;-71
2021/01/27 00:47:28;;;;;;;18.88;9.10;;;2.90;99.90;;;;;;4973219;28;20047;-70
2021/01/27 00:50:03;;;;;;;16.50;8.63;;;2.90;99.90;;;;;;4957748;29;20114;-71
2021/01/27 00:52:31;;;;;;;17.13;8.68;;;2.90;99.90;;;;;;4957480;29;20051;-71
2021/01/27 00:55:00;;;;;;;17.77;9.02;;;2.90;99.90;;;;;;4958027;28;20043;-71
2021/01/27 00:57:27;;;;;;;13.63;8.25;;;3.00;99.90;;;;;;4977232;28;20070;-71
2021/01/27 00:59:58;;;;;;;15.60;9.07;;;2.90;99.90;;;;;;4976847;28;20070;-71
2021/01/27 01:02:56;;;;;;;16.17;8.60;;;2.90;99.90;;;;;;4976706;28;20053;-71
2021/01/27 01:05:33;;;;;;;17.08;8.98;;;2.90;99.90;;;;;;4960873;28;20050;-71
2021/01/27 01:12:20;;;;;;;15.38;8.63;;;3.00;99.90;;;;;;4976537;28;20042;-70
2021/01/27 01:14:58;;;;;;;17.38;8.90;;;3.00;99.90;;;;;;4976517;28;20078;-70
2021/01/27 01:17:33;;;;;;;16.00;9.77;;;3.00;99.90;;;;;;4977125;28;20046;-70
2021/01/27 01:20:01;;;;;;;18.70;9.95;;;3.00;99.90;;;;;;4957607;28;20062;-70
2021/01/27 01:22:53;;;;;;;15.38;9.45;;;3.00;99.90;;;;;;4976177;28;20454;-70
2021/01/27 01:25:32;;;;;;;19.65;10.20;;;3.00;99.90;;;;;;4957205;29;20106;-70
2021/01/27 01:28:03;;;;;;;16.23;9.30;;;3.00;99.90;;;;;;4961168;28;20047;-70
2021/01/27 01:35:01;;;;;;;14.02;8.25;;;3.00;99.90;;;;;;4976251;28;20134;-70
2021/01/27 01:37:27;;;;;;;16.42;8.70;;;3.00;99.90;;;;;;4972993;28;20047;-70
2021/01/27 01:39:56;;;;;;;17.30;10.10;;;3.00;99.90;;;;;;4959664;28;20038;-70
2021/01/27 01:42:28;;;;;;;20.00;10.00;;;3.00;99.90;;;;;;4956802;28;20095;-70
2021/01/27 01:44:55;;;;;;;18.92;9.43;;;3.00;99.90;;;;;;4976535;28;20542;-69
2021/01/27 01:47:27;;;;;;;17.35;8.48;;;3.00;99.90;;;;;;4975793;28;20500;-69
2021/01/27 01:50:17;;;;;;;16.08;10.20;;;3.00;99.90;;;;;;4956880;29;20062;-70
2021/01/27 01:52:59;;;;;;;14.82;9.45;;;3.00;99.90;;;;;;4957627;28;20479;-70
2021/01/27 01:55:27;;;;;;;14.15;8.70;;;2.90;99.90;;;;;;4960680;28;20047;-69
2021/01/27 01:58:19;;;;;;;19.10;9.77;;;3.00;99.90;;;;;;4960172;28;20113;-70
2021/01/27 02:04:58;;;;;;;19.02;10.02;;;2.90;99.90;;;;;;4975400;28;20038;-70
2021/01/27 02:22:48;;;;;;;13.23;7.43;;;2.90;99.90;;;;;;4973241;28;20154;-70
2021/01/27 02:25:38;;;;;;;14.88;8.55;;;2.90;99.90;;;;;;4941498;28;20039;-70
2021/01/27 02:28:40;;;;;;;15.70;8.38;;;2.90;99.90;;;;;;4961182;28;20053;-70
2021/01/27 02:42:33;;;;;;;11.32;6.93;;;2.90;99.90;;;;;;4974484;28;20049;-70
2021/01/27 02:45:22;;;;;;;11.75;7.25;;;2.90;99.90;;;;;;4975414;28;20042;-70
2021/01/27 02:48:15;;;;;;;13.60;7.43;;;2.90;99.90;;;;;;4974137;28;20054;-70
2021/01/27 02:55:04;;;;;;;15.57;7.93;;;2.90;99.90;;;;;;4974551;28;20437;-69
2021/01/27 02:57:54;;;;;;;14.25;7.20;;;2.90;99.90;;;;;;4964406;28;20046;-70
2021/01/27 03:00:44;;;;;;;12.70;7.10;;;2.90;99.90;;;;;;4974957;28;20046;-70
2021/01/27 03:03:23;;;;;;;13.98;8.10;;;2.80;99.90;;;;;;4974979;28;20059;-70
2021/01/27 03:06:20;;;;;;;17.58;8.15;;;2.80;99.90;;;;;;4962273;28;20066;-70
2021/01/27 03:12:27;;;;;;;9.60;5.63;;;2.80;99.90;;;;;;4969403;28;20161;-70
2021/01/27 03:15:00;;;;;;;12.07;6.93;;;2.80;99.90;;;;;;4957497;28;20125;-69
2021/01/27 03:17:31;;;;;;;12.00;7.70;;;2.80;99.90;;;;;;4955492;28;20035;-69
2021/01/27 03:20:09;;;;;;;13.13;7.38;;;2.80;99.90;;;;;;4957655;28;20486;-69
2021/01/27 03:23:06;;;;;;;11.57;6.97;;;2.80;99.90;;;;;;4974834;28;20597;-69
2021/01/27 03:29:56;;;;;;;13.63;6.90;;;2.80;99.90;;;;;;4974051;28;20034;-69
2021/01/27 03:32:45;;;;;;;13.15;7.22;;;2.70;99.90;;;;;;4970217;28;20126;-70
2021/01/27 03:39:56;;;;;;;11.25;5.93;;;2.70;99.90;;;;;;4974224;28;20073;-69
2021/01/27 03:42:51;;;;;;;10.15;5.63;;;2.70;99.90;;;;;;4955025;28;20074;-69
2021/01/27 03:45:27;;;;;;;9.30;5.68;;;2.80;99.90;;;;;;4957159;28;20050;-69
2021/01/27 03:48:06;;;;;;;13.18;5.40;;;2.70;99.90;;;;;;4974189;28;20043;-69
2021/01/27 03:54:43;;;;;;;8.85;4.95;;;2.70;99.90;;;;;;4973805;28;20105;-69
2021/01/27 03:57:32;;;;;;;11.05;5.63;;;2.70;99.90;;;;;;4968724;28;20060;-70
2021/01/27 04:00:09;;;;;;;11.35;6.45;;;2.70;99.90;;;;;;4975926;28;20482;-69
2021/01/27 04:02:43;;;;;;;11.15;5.55;;;2.70;99.90;;;;;;4977816;28;20101;-69
2021/01/27 04:12:24;;;;;;;10.93;5.75;;;2.70;99.90;;;;;;4958221;28;20047;-70
2021/01/27 04:15:03;;;;;;;13.40;5.75;;;2.70;99.90;;;;;;4977954;28;20034;-69
2021/01/27 04:17:30;;;;;;;10.18;5.57;;;2.70;99.90;;;;;;4977833;28;20043;-69
2021/01/27 04:27:26;;;;;;;8.88;5.05;;;2.70;99.90;;;;;;4976429;28;20045;-70
2021/01/27 04:30:15;;;;;;;11.63;5.50;;;2.70;99.90;;;;;;4958157;29;20494;-69
2021/01/27 04:32:41;;;;;;;15.52;6.55;;;2.70;99.90;;;;;;4972365;28;20070;-69
2021/01/27 04:35:09;;;;;;;11.73;4.97;;;2.70;99.90;;;;;;4960517;28;20077;-69
2021/01/27 04:38:00;;;;;;;10.80;5.28;;;2.60;99.90;;;;;;4977042;28;20038;-69
2021/01/27 04:40:42;;;;;;;17.45;6.15;;;2.70;99.90;;;;;;4961805;28;20062;-69
2021/01/27 04:47:26;;;;;;;11.30;6.15;;;2.60;99.90;;;;;;4976901;28;20566;-69
2021/01/27 04:50:26;;;;;;;11.05;5.30;;;2.60;99.90;;;;;;4977078;28;20125;-70
2021/01/27 04:53:28;;;;;;;11.07;5.38;;;2.60;99.90;;;;;;4966593;28;20059;-69
2021/01/27 05:00:19;;;;;;;10.02;4.85;;;2.50;99.90;;;;;;4976714;28;20034;-69
2021/01/27 05:10:01;;;;;;;8.05;4.75;;;2.50;99.90;;;;;;4976387;28;20034;-69
2021/01/27 05:12:40;;;;;;;7.25;3.95;;;2.60;99.90;;;;;;4977079;28;20081;-69
2021/01/27 05:15:10;;;;;;;8.23;4.30;;;2.50;99.90;;;;;;4976603;28;20047;-69
2021/01/27 05:17:44;;;;;;;10.00;4.82;;;2.50;99.90;;;;;;4976466;28;20050;-69
2021/01/27 05:20:41;;;;;;;9.82;5.47;;;2.50;99.90;;;;;;4976315;28;20049;-69
2021/01/27 05:23:07;;;;;;;8.05;4.30;;;2.50;99.90;;;;;;4976331;28;20039;-69
2021/01/27 05:25:44;;;;;;;9.98;4.72;;;2.60;99.90;;;;;;4959356;28;20117;-69
2021/01/27 05:28:25;;;;;;;11.27;4.55;;;2.60;99.90;;;;;;4976134;28;20042;-71
2021/01/27 05:34:57;;;;;;;9.75;4.78;;;2.60;99.90;;;;;;4973065;28;20062;-69
2021/01/27 05:37:35;;;;;;;7.15;3.92;;;2.60;99.90;;;;;;4956728;29;20043;-68
2021/01/27 05:40:27;;;;;;;8.93;4.30;;;2.60;99.90;;;;;;4957188;28;20055;-69
2021/01/27 05:50:27;;;;;;;6.18;4.00;;;2.50;99.90;;;;;;4975952;28;20043;-69
2021/01/27 05:53:19;;;;;;;5.95;3.78;;;2.40;99.90;;;;;;4959757;28;20078;-70
2021/01/27 05:56:12;;;;;;;6.35;3.63;;;2.40;99.90;;;;;;4962713;28;20101;-73
2021/01/27 06:02:26;;;;;;;7.40;3.10;;;2.30;99.90;;;;;;4975330;28;20422;-70
2021/01/27 06:04:59;;;;;;;5.95;3.65;;;2.20;99.90;;;;;;4956161;29;20475;-70
2021/01/27 06:11:10;;;;;;;6.18;3.42;;;2.10;99.90;;;;;;4975549;28;20049;-70
2021/01/27 06:21:10;;;;;;;8.75;3.53;;;1.90;99.90;;;;;;4975238;28;20453;-70
2021/01/27 06:24:16;;;;;;;6.40;3.72;;;1.80;99.90;;;;;;4974907;28;20043;-70
2021/01/27 06:27:19;;;;;;;6.95;3.83;;;1.80;99.90;;;;;;4974294;28;20038;-71
2021/01/27 06:34:09;;;;;;;6.10;3.20;;;1.80;99.90;;;;;;4907729;29;20476;-70
2021/01/27 06:40:58;;;;;;;7.38;3.17;;;1.70;99.90;;;;;;4896571;29;20465;-71
2021/01/27 06:43:46;;;;;;;5.55;3.38;;;1.70;99.90;;;;;;4896569;29;20104;-70
2021/01/27 06:46:38;;;;;;;8.85;5.07;;;1.70;99.90;;;;;;4899386;29;20555;-70
2021/01/27 06:49:41;;;;;;;6.75;3.90;;;1.60;99.90;;;;;;4935613;29;20065;-70
2021/01/27 06:56:30;;;;;;;4.93;3.10;;;1.60;99.90;;;;;;4936093;29;20098;-70
2021/01/27 06:59:40;;;;;;;3.70;2.10;;;1.60;99.90;;;;;;4936137;29;20440;-70
2021/01/27 07:06:06;;;;;;;2.83;1.58;;;1.50;99.90;;;;;;4935692;29;20038;-70
2021/01/27 07:09:02;;;;;;;5.78;2.80;;;1.50;99.90;;;;;;4934516;29;20120;-71
2021/01/27 07:11:51;;;;;;;7.53;3.38;;;1.50;99.90;;;;;;4936061;29;20052;-71
2021/01/27 07:21:41;;;;;;;5.75;2.90;;;1.50;99.90;;;;;;4933762;29;20047;-73
2021/01/27 07:24:21;;;;;;;5.72;3.35;;;1.60;99.90;;;;;;4921552;29;20055;-69
2021/01/27 07:31:05;;;;;;;6.43;3.63;;;1.60;99.90;;;;;;4935828;29;20047;-69
2021/01/27 07:34:00;;;;;;;8.02;3.28;;;1.60;99.90;;;;;;4937700;29;20138;-73
2021/01/27 07:36:51;;;;;;;6.97;3.60;;;1.60;99.90;;;;;;4918795;29;20508;-72
2021/01/27 07:43:28;;;;;;;7.55;3.40;;;1.60;99.90;;;;;;4944442;29;20139;-73
2021/01/27 07:46:32;;;;;;;8.75;4.22;;;1.60;99.90;;;;;;4940278;29;20073;-73
2021/01/27 07:49:04;;;;;;;6.47;3.60;;;1.60;99.90;;;;;;4959180;29;20039;-72
2021/01/27 07:52:00;;;;;;;6.72;4.10;;;1.50;99.90;;;;;;4943772;29;20047;-74
2021/01/27 07:58:41;;;;;;;5.07;3.00;;;1.50;99.90;;;;;;4958517;29;20401;-75
2021/01/27 08:01:31;;;;;;;5.57;3.60;;;1.50;99.90;;;;;;4940268;29;20079;-74
2021/01/27 08:07:42;;;;;;;6.85;3.78;;;1.50;99.90;;;;;;4957936;29;20521;-72
2021/01/27 08:10:47;;;;;;;6.15;3.92;;;1.60;99.90;;;;;;4958725;28;20039;-70
2021/01/27 08:13:35;;;;;;;7.75;4.45;;;1.60;99.90;;;;;;4958161;29;20043;-73
2021/01/27 08:16:26;;;;;;;6.88;3.67;;;1.60;99.90;;;;;;4954032;29;20163;-73
2021/01/27 08:19:11;;;;;;;7.00;3.97;;;1.60;99.90;;;;;;4957971;28;20410;-68
2021/01/27 08:21:46;;;;;;;6.00;3.20;;;1.60;99.90;;;;;;4957109;29;20043;-69
2021/01/27 08:31:37;;;;;;;6.07;3.50;;;1.70;99.90;;;;;;4958512;29;20047;-72
2021/01/27 08:34:06;;;;;;;6.15;3.78;;;1.70;99.90;;;;;;4957336;29;20402;-66
2021/01/27 08:41:15;;;;;;;5.45;3.45;;;1.70;99.90;;;;;;4938530;29;20438;-69
2021/01/27 08:43:54;;;;;;;4.13;2.78;;;1.70;99.90;;;;;;4938709;29;20118;-68
2021/01/27 08:50:32;;;;;;;5.65;3.28;;;1.80;99.90;;;;;;4938181;29;20090;-69
2021/01/27 08:57:07;;;;;;;4.60;2.80;;;1.70;99.90;;;;;;4930334;29;20043;-73
2021/01/27 09:06:49;;;;;;;4.13;2.85;;;1.80;99.90;;;;;;4934231;29;20050;-69
2021/01/27 09:09:39;;;;;;;4.57;2.67;;;1.90;99.90;;;;;;4937358;29;20526;-70
2021/01/27 09:12:13;;;;;;;5.13;2.58;;;1.90;99.90;;;;;;4944658;29;20048;-69
2021/01/27 09:18:25;;;;;;;6.25;3.33;;;1.90;99.90;;;;;;4937759;29;19970;-70
2021/01/27 09:21:02;;;;;;;5.15;2.85;;;1.90;99.90;;;;;;4937120;29;20059;-72
2021/01/27 09:23:31;;;;;;;6.22;3.63;;;1.90;99.90;;;;;;4938100;29;20055;-70
2021/01/27 09:26:20;;;;;;;6.25;3.05;;;1.90;99.90;;;;;;4936650;29;20071;-70
2021/01/27 09:33:28;;;;;;;5.60;2.50;;;2.00;99.90;;;;;;4937520;29;20039;-70
2021/01/27 09:36:26;;;;;;;4.10;2.42;;;2.00;99.90;;;;;;4950586;29;20055;-71
2021/01/27 09:39:02;;;;;;;4.57;2.67;;;2.00;99.90;;;;;;4952106;29;20569;-73
2021/01/27 09:41:43;;;;;;;5.50;3.25;;;2.00;99.90;;;;;;4941824;29;20055;-69
2021/01/27 09:44:22;;;;;;;4.53;2.75;;;1.90;99.90;;;;;;4956661;28;20406;-70
2021/01/27 09:51:01;;;;;;;3.50;2.10;;;1.90;99.90;;;;;;4956419;29;20037;-70
2021/01/27 09:53:35;;;;;;;4.88;2.88;;;1.90;99.90;;;;;;4937468;29;20122;-69
2021/01/27 09:56:03;;;;;;;4.13;2.60;;;1.90;99.90;;;;;;4937448;29;20059;-76
2021/01/27 09:58:32;;;;;;;4.90;2.65;;;2.00;99.90;;;;;;4956513;28;20065;-70
2021/01/27 10:01:04;;;;;;;4.70;2.80;;;2.00;99.90;;;;;;4956194;28;20126;-68
2021/01/27 10:11:08;;;;;;;4.65;2.80;;;2.00;99.90;;;;;;4956174;29;20589;-69
2021/01/27 10:21:01;;;;;;;9.00;2.80;;;2.10;99.90;;;;;;4950903;29;20130;-71
2021/01/27 10:23:58;;;;;;;4.07;3.00;;;2.10;99.90;;;;;;4937793;29;20427;-78
2021/01/27 10:26:36;;;;;;;3.97;2.33;;;2.10;99.90;;;;;;4955972;28;20051;-68
2021/01/27 10:33:21;;;;;;;5.47;2.80;;;2.10;99.90;;;;;;4955599;29;20034;-77
2021/01/27 10:35:53;;;;;;;4.43;2.75;;;2.10;99.90;;;;;;4950467;29;20086;-69
2021/01/27 10:38:23;;;;;;;4.60;2.65;;;2.10;99.90;;;;;;4975487;28;20043;-70
2021/01/27 10:41:32;;;;;;;5.00;2.72;;;2.10;99.90;;;;;;4974757;28;20039;-69
2021/01/27 10:44:24;;;;;;;3.75;2.47;;;2.10;99.90;;;;;;4975019;28;20051;-72
2021/01/27 10:47:07;;;;;;;3.72;2.25;;;2.20;99.90;;;;;;4957478;28;20433;-69
2021/01/27 10:53:22;;;;;;;3.65;2.47;;;2.20;99.90;;;;;;4974534;28;20065;-69
2021/01/27 10:55:55;;;;;;;4.47;2.63;;;2.20;99.90;;;;;;4974860;28;20537;-70
2021/01/27 10:58:33;;;;;;;4.22;2.50;;;2.20;99.90;;;;;;4960351;28;20411;-77
2021/01/27 11:01:07;;;;;;;3.40;2.00;;;2.30;99.90;;;;;;4974684;28;20051;-75
2021/01/27 11:03:39;;;;;;;3.28;2.30;;;2.40;99.90;;;;;;4975676;28;20137;-75
2021/01/27 11:06:38;;;;;;;4.18;2.90;;;2.30;99.90;;;;;;4957538;28;20086;-74
2021/01/27 11:09:11;;;;;;;3.80;2.28;;;2.40;99.90;;;;;;4960177;28;20546;-75
2021/01/27 11:11:43;;;;;;;3.78;2.30;;;2.40;99.90;;;;;;4957889;28;20049;-76
2021/01/27 11:14:12;;;;;;;3.15;2.17;;;2.50;99.90;;;;;;4939847;28;20166;-77
2021/01/27 11:20:41;;;;;;;4.63;2.83;;;2.50;99.90;;;;;;4974363;28;20029;-76
2021/01/27 11:23:13;;;;;;;4.13;2.38;;;2.50;99.90;;;;;;4972218;28;20427;-76
2021/01/27 11:25:42;;;;;;;4.38;2.28;;;2.50;99.90;;;;;;4957625;28;20047;-78
2021/01/27 11:28:27;;;;;;;5.22;2.70;;;2.50;99.90;;;;;;4968895;28;20034;-78
2021/01/27 11:31:31;;;;;;;3.88;2.42;;;2.50;99.90;;;;;;4957325;28;20046;-77
2021/01/27 11:34:09;;;;;;;3.88;2.65;;;2.60;99.90;;;;;;4974372;28;20374;-78
2021/01/27 11:36:50;;;;;;;3.90;2.35;;;2.60;99.90;;;;;;4974745;28;20055;-78
2021/01/27 11:46:32;;;;;;;3.55;2.38;;;2.70;99.90;;;;;;4959815;28;20093;-76
2021/01/27 11:49:32;;;;;;;5.22;3.05;;;2.70;99.90;;;;;;4974981;28;20122;-71
2021/01/27 11:56:00;;;;;;;3.28;1.95;;;2.80;99.90;;;;;;4974002;28;20528;-73
2021/01/27 11:58:30;;;;;;;4.03;2.30;;;2.80;99.90;;;;;;4974047;28;20043;-71
2021/01/27 12:00:59;;;;;;;3.70;2.33;;;2.90;99.90;;;;;;4963234;28;20058;-70
2021/01/27 12:07:19;;;;;;;4.07;2.65;;;3.00;99.90;;;;;;4973822;28;20078;-71
2021/01/27 12:13:30;;;;;;;4.38;2.78;;;3.00;99.90;;;;;;4952349;28;20085;-69
2021/01/27 12:15:58;;;;;;;5.90;3.30;;;3.10;99.90;;;;;;4973804;28;20154;-69
2021/01/27 12:18:30;;;;;;;5.05;3.10;;;3.10;99.90;;;;;;4974185;28;20039;-71
2021/01/27 12:20:58;;;;;;;6.18;3.28;;;3.20;99.90;;;;;;4975902;28;20046;-71
2021/01/27 12:23:36;;;;;;;6.03;2.95;;;3.20;99.90;;;;;;4977572;28;20039;-70
2021/01/27 12:26:10;;;;;;;5.65;3.17;;;3.30;99.90;;;;;;4974061;28;20043;-73
2021/01/27 12:29:04;;;;;;;6.75;3.92;;;3.40;99.90;;;;;;4977236;28;20039;-72
2021/01/27 12:31:51;;;;;;;5.97;3.40;;;3.40;99.90;;;;;;4977477;28;20046;-69
2021/01/27 12:34:18;;;;;;;7.32;3.47;;;3.40;99.90;;;;;;4977283;28;20051;-69
2021/01/27 12:41:09;;;;;;;6.82;3.60;;;3.50;99.90;;;;;;4976889;28;20034;-70
2021/01/27 12:43:58;;;;;;;6.30;3.78;;;3.60;99.90;;;;;;4973944;28;20072;-70
2021/01/27 12:46:54;;;;;;;6.05;3.05;;;3.60;99.90;;;;;;4961273;28;20158;-70
2021/01/27 12:53:28;;;;;;;5.35;3.25;;;3.70;99.90;;;;;;4976809;28;20037;-71
2021/01/27 13:11:08;;;;;;;6.15;3.05;;;3.90;99.90;;;;;;4976111;28;20539;-73
2021/01/27 13:13:42;;;;;;;6.20;3.63;;;4.00;99.90;;;;;;4976505;28;20043;-73
2021/01/27 13:16:14;;;;;;;6.63;3.75;;;4.00;99.90;;;;;;4971432;28;20046;-71
2021/01/27 13:18:48;;;;;;;6.32;3.63;;;4.00;99.90;;;;;;4976599;28;20554;-69
2021/01/27 13:21:41;;;;;;;6.18;3.40;;;4.10;99.90;;;;;;4957303;28;20039;-70
2021/01/27 13:24:16;;;;;;;7.20;4.05;;;4.10;99.90;;;;;;4943564;28;20050;-70
2021/01/27 13:30:38;;;;;;;6.43;3.47;;;4.20;99.90;;;;;;4976017;28;20038;-65
2021/01/27 13:33:46;;;;;;;7.05;3.70;;;4.20;99.90;;;;;;4974063;28;20050;-70
2021/01/27 13:36:18;;;;;;;7.47;3.65;;;4.20;99.90;;;;;;4976034;28;20058;-64
2021/01/27 13:38:44;;;;;;;7.88;4.15;;;4.20;99.90;;;;;;4970110;28;20039;-64
2021/01/27 13:41:20;;;;;;;8.02;3.70;;;4.20;99.90;;;;;;4976203;28;20066;-64
2021/01/27 13:43:52;;;;;;;5.97;3.58;;;4.30;99.90;;;;;;4967483;28;20367;-64
2021/01/27 13:46:18;;;;;;;6.05;3.60;;;4.30;99.90;;;;;;4975791;28;20125;-67
2021/01/27 13:48:44;;;;;;;6.25;3.47;;;4.30;99.90;;;;;;4975842;28;20137;-67
2021/01/27 13:51:23;;;;;;;6.35;3.65;;;4.30;99.90;;;;;;4958844;28;20046;-64
2021/01/27 13:53:50;;;;;;;7.45;3.72;;;4.40;99.90;;;;;;4956576;28;20051;-65
2021/01/27 13:56:27;;;;;;;7.00;4.18;;;4.30;99.90;;;;;;4975889;28;20371;-66
2021/01/27 13:59:24;;;;;;;;;;;4.40;99.90;;;;;;4973317;28;20078;-67
2021/01/27 14:02:34;;;;;;;5.40;2.65;;;4.40;99.90;;;;;;4959792;28;19922;-66
2021/01/27 14:05:22;;;;;;;6.00;2.97;;;4.40;99.90;;;;;;4915903;29;20107;-67
2021/01/27 14:11:29;;;;;;;10.15;3.72;;;4.40;99.90;;;;;;4969828;28;20129;-67
2021/01/27 14:14:23;;;;;;;9.05;4.57;;;4.50;99.90;;;;;;4951223;28;20047;-64
2021/01/27 14:17:08;;;;;;;8.07;4.27;;;4.50;99.90;;;;;;4959470;28;20102;-65
2021/01/27 14:19:39;;;;;;;11.68;5.30;;;4.50;99.90;;;;;;4960676;28;20053;-65
2021/01/27 14:26:25;;;;;;;10.05;4.72;;;4.60;99.90;;;;;;4975020;28;20081;-66
2021/01/27 14:28:57;;;;;;;12.18;4.85;;;4.60;99.90;;;;;;4974897;28;20046;-66
2021/01/27 14:31:32;;;;;;;13.70;5.47;;;4.60;99.90;;;;;;4974712;28;20174;-66
2021/01/27 14:34:08;;;;;;;11.23;5.90;;;4.70;99.90;;;;;;4975234;28;20498;-67
2021/01/27 14:41:39;;;;;;;15.07;6.40;;;4.70;99.90;;;;;;4967232;28;20058;-65
2021/01/27 14:44:31;;;;;;;11.27;5.53;;;4.80;99.90;;;;;;4974020;28;20549;-66
2021/01/27 14:47:16;;;;;;;10.20;5.32;;;4.80;99.90;;;;;;4975063;28;20054;-65
2021/01/27 14:49:50;;;;;;;9.77;5.00;;;4.70;99.90;;;;;;4974545;28;20043;-66
2021/01/27 14:56:42;;;;;;;7.95;4.22;;;4.90;99.90;;;;;;4974568;28;20037;-66
2021/01/27 15:06:42;;;;;;;12.20;5.90;;;5.00;99.90;;;;;;4973547;28;20050;-65
2021/01/27 15:09:13;;;;;;;15.30;6.32;;;5.00;99.90;;;;;;4973673;28;20100;-65
2021/01/27 15:11:42;;;;;;;12.05;5.88;;;5.00;99.90;;;;;;4974582;28;20495;-66
2021/01/27 15:14:15;;;;;;;10.98;5.60;;;5.10;99.90;;;;;;4955307;29;20135;-66
2021/01/27 15:16:42;;;;;;;13.13;5.75;;;5.10;99.90;;;;;;4970118;28;20049;-66
2021/01/27 15:19:08;;;;;;;12.55;6.18;;;5.10;99.90;;;;;;4955259;28;20049;-66
2021/01/27 15:21:39;;;;;;;12.13;6.93;;;5.10;99.90;;;;;;4974641;28;20047;-66
2021/01/27 15:24:13;;;;;;;12.88;6.13;;;5.10;99.90;;;;;;4974577;28;20043;-65
2021/01/27 15:26:43;;;;;;;14.27;6.60;;;5.10;99.90;;;;;;4974505;28;20050;-66
2021/01/27 15:29:18;;;;;;;10.38;5.45;;;5.20;99.90;;;;;;4957949;28;20066;-65
2021/01/27 15:31:46;;;;;;;9.80;5.43;;;5.20;99.90;;;;;;4974242;28;20046;-65
2021/01/27 15:34:12;;;;;;;10.98;5.13;;;5.20;99.90;;;;;;4974241;28;20398;-66
2021/01/27 15:36:40;;;;;;;12.10;6.82;;;5.20;99.90;;;;;;4956661;28;20058;-66
2021/01/27 15:39:12;;;;;;;12.00;5.60;;;5.30;99.90;;;;;;4969733;28;20115;-66
2021/01/27 15:41:39;;;;;;;9.20;5.00;;;5.30;99.90;;;;;;4955225;29;20071;-66
2021/01/27 15:44:05;;;;;;;11.48;5.00;;;5.30;99.90;;;;;;4968783;28;20039;-66
2021/01/27 15:46:40;;;;;;;12.15;4.88;;;5.30;99.90;;;;;;4957262;28;20043;-66
2021/01/27 15:49:12;;;;;;;7.28;3.88;;;5.30;99.90;;;;;;4973925;28;20054;-66
2021/01/27 15:51:44;;;;;;;7.30;3.53;;;5.30;99.90;;;;;;4955910;28;20051;-66
2021/01/27 15:54:15;;;;;;;11.75;4.75;;;5.30;99.90;;;;;;4974995;28;20094;-66
2021/01/27 15:56:43;;;;;;;10.38;4.03;;;5.30;99.90;;;;;;4977824;28;20039;-65
2021/01/27 15:59:14;;;;;;;12.25;5.00;;;5.30;99.90;;;;;;4977795;28;20046;-66
2021/01/27 16:01:43;;;;;;;8.50;4.55;;;5.30;99.90;;;;;;4960550;28;20457;-66
2021/01/27 16:04:18;;;;;;;8.90;4.38;;;5.30;99.90;;;;;;4960271;28;20505;-66
2021/01/27 16:06:46;;;;;;;7.93;3.75;;;5.40;99.90;;;;;;4977336;28;20047;-68
2021/01/27 16:09:24;;;;;;;6.85;3.78;;;5.40;99.90;;;;;;4977698;28;20121;-67
2021/01/27 16:11:56;;;;;;;9.18;4.30;;;5.30;99.90;;;;;;4977763;28;20047;-65
2021/01/27 16:14:53;;;;;;;7.43;3.53;;;5.30;99.90;;;;;;4978403;28;20057;-68
2021/01/27 16:21:29;;;;;;;8.77;4.57;;;5.30;99.90;;;;;;4977452;28;20089;-68
2021/01/27 16:24:00;;;;;;;9.43;3.78;;;5.30;99.90;;;;;;4955025;28;20141;-67
2021/01/27 16:26:29;;;;;;;12.10;4.97;;;5.30;99.90;;;;;;4944443;28;20430;-70
2021/01/27 16:29:01;;;;;;;9.48;4.68;;;5.30;99.90;;;;;;4972319;28;20511;-68
2021/01/27 16:31:37;;;;;;;10.18;5.13;;;5.30;99.90;;;;;;4959906;28;20047;-66
2021/01/27 16:34:12;;;;;;;11.68;5.20;;;5.30;99.90;;;;;;4944435;28;20065;-68
2021/01/27 16:36:43;;;;;;;11.25;4.50;;;5.30;99.90;;;;;;4956294;29;20134;-69
2021/01/27 16:39:54;;;;;;;11.10;4.60;;;5.30;99.90;;;;;;4958191;28;20197;-68
2021/01/27 16:42:28;;;;;;;7.63;4.20;;;5.40;99.90;;;;;;4957600;28;20155;-68
2021/01/27 16:45:05;;;;;;;12.80;5.13;;;5.40;99.90;;;;;;4939673;29;20123;-66
2021/01/27 16:48:11;;;;;;;10.18;5.22;;;5.40;99.90;;;;;;4957805;28;20039;-67
2021/01/27 16:50:56;;;;;;;10.65;4.65;;;5.40;99.90;;;;;;4944952;29;20043;-68
2021/01/27 16:53:22;;;;;;;10.55;5.10;;;5.40;99.90;;;;;;4946130;29;20054;-70
2021/01/27 16:59:59;;;;;;;8.55;4.55;;;5.40;99.90;;;;;;4957517;29;20102;-69
2021/01/27 17:02:30;;;;;;;10.57;3.97;;;5.50;99.90;;;;;;4948793;28;20049;-66
2021/01/27 17:04:59;;;;;;;12.32;5.13;;;5.60;99.90;;;;;;4956577;28;20391;-65
2021/01/27 17:07:29;;;;;;;10.32;4.63;;;5.50;99.90;;;;;;4956680;28;20046;-67
2021/01/27 17:09:56;;;;;;;8.65;4.43;;;5.50;99.90;;;;;;4972207;28;20106;-68
2021/01/27 17:12:35;;;;;;;11.60;4.93;;;5.50;99.90;;;;;;4954463;29;20070;-66
2021/01/27 17:15:26;;;;;;;11.73;4.72;;;5.60;99.90;;;;;;4954183;29;20051;-67
2021/01/27 17:18:02;;;;;;;11.23;5.80;;;5.50;99.90;;;;;;4941104;29;20043;-67
2021/01/27 17:20:44;;;;;;;13.23;5.18;;;5.60;99.90;;;;;;4957362;28;20061;-67
2021/01/27 17:23:17;;;;;;;13.10;6.22;;;5.60;99.90;;;;;;4957140;28;20051;-67
2021/01/27 17:26:03;;;;;;;11.35;5.15;;;5.60;99.90;;;;;;4957108;28;20047;-67
2021/01/27 17:32:17;;;;;;;10.85;4.22;;;5.60;99.90;;;;;;4956657;29;20079;-66
2021/01/27 17:35:33;;;;;;;13.00;5.50;;;5.60;99.90;;;;;;4956818;28;20047;-67
2021/01/27 17:38:25;;;;;;;8.18;3.60;;;5.70;99.90;;;;;;4923100;29;20122;-67
2021/01/27 17:41:06;;;;;;;9.50;4.18;;;5.60;99.90;;;;;;4937644;29;20103;-67
2021/01/27 17:43:33;;;;;;;9.27;4.55;;;5.70;99.90;;;;;;4937082;29;20036;-67
2021/01/27 17:46:01;;;;;;;9.25;4.57;;;5.70;99.90;;;;;;4937357;29;20044;-67
2021/01/27 17:48:39;;;;;;;8.48;4.53;;;5.70;99.90;;;;;;4937485;29;20048;-66
2021/01/27 17:51:17;;;;;;;9.73;4.50;;;5.70;99.90;;;;;;4937381;29;20098;-67
2021/01/27 17:53:51;;;;;;;9.43;4.50;;;5.70;99.90;;;;;;4936556;29;20465;-67
2021/01/27 18:00:33;;;;;;;6.35;3.28;;;5.70;99.90;;;;;;4936791;29;20035;-67
2021/01/27 18:03:04;;;;;;;6.50;3.22;;;5.70;99.90;;;;;;4933251;29;20476;-66
2021/01/27 18:05:41;;;;;;;7.75;3.42;;;5.70;99.90;;;;;;4933705;29;20043;-67
2021/01/27 18:08:12;;;;;;;8.38;3.47;;;5.70;99.90;;;;;;4918913;29;20047;-66
2021/01/27 18:11:09;;;;;;;7.07;3.70;;;5.70;99.90;;;;;;4936895;29;20044;-67
2021/01/27 18:17:59;;;;;;;5.07;2.53;;;5.70;99.90;;;;;;4936083;29;20395;-67
2021/01/27 18:20:34;;;;;;;7.28;2.90;;;5.80;99.90;;;;;;4933510;29;20126;-67
2021/01/27 18:23:44;;;;;;;3.53;1.95;;;5.70;99.90;;;;;;4922798;29;20404;-67
2021/01/27 18:30:31;;;;;;;5.25;2.75;;;5.80;99.90;;;;;;4936567;29;20119;-68
2021/01/27 18:33:05;;;;;;;5.20;2.08;;;5.80;99.90;;;;;;4936554;29;20476;-69
2021/01/27 18:35:35;;;;;;;3.92;1.90;;;5.90;99.90;;;;;;4931559;28;20059;-71
2021/01/27 18:42:26;;;;;;;6.32;3.28;;;5.90;99.90;;;;;;4974767;28;20046;-68
2021/01/27 18:45:36;;;;;;;7.30;3.22;;;5.90;99.90;;;;;;4969475;28;20038;-67
2021/01/27 18:48:18;;;;;;;6.32;2.78;;;5.90;99.90;;;;;;4974782;28;20410;-68
2021/01/27 18:50:46;;;;;;;4.63;2.83;;;5.80;99.90;;;;;;4975010;28;20055;-68
2021/01/27 18:53:36;;;;;;;4.78;2.65;;;5.90;99.90;;;;;;4974937;28;20058;-66
2021/01/27 18:56:09;;;;;;;6.35;2.10;;;5.80;99.90;;;;;;4960108;28;20077;-67
2021/01/27 18:58:45;;;;;;;6.13;1.77;;;5.80;99.90;;;;;;4968823;28;20074;-67
2021/01/27 19:01:21;;;;;;;3.40;1.80;;;5.90;99.90;;;;;;4958171;28;20061;-64
2021/01/27 19:08:06;;;;;;;3.28;1.70;;;5.80;99.90;;;;;;4974524;28;20061;-64
2021/01/27 19:10:38;;;;;;;2.35;1.25;;;5.80;99.90;;;;;;4974384;28;20053;-63
2021/01/27 19:13:24;;;;;;;4.93;1.70;;;5.80;99.90;;;;;;4957317;28;20042;-64
2021/01/27 19:15:55;;;;;;;4.70;1.60;;;5.70;99.90;;;;;;4974896;28;20122;-64
2021/01/27 19:18:30;;;;;;;3.92;1.73;;;5.80;99.90;;;;;;4941243;28;20050;-64
2021/01/27 19:20:57;;;;;;;3.33;1.45;;;5.70;99.90;;;;;;4955993;28;20051;-64